sensor_id;sensor_type;location;lat;lon;timestamp;pressure;altitude;pressure_sealevel;temperature;humidity
34500;BME280;20745;50.882;6.962;2023-01-28T00:00:51;102106.47;;;4.78;100.00
34500;BME280;20745;50.882;6.962;2023-01-28T00:03:18;102109.69;;;4.70;100.00
34500;BME280;20745;50.882;6.962;2023-01-28T00:05:44;102109.50;;;4.61;100.00
34500;BME280;20745;50.882;6.962;2023-01-28T00:08:11;102112.63;;;4.55;100.00
34500;BME280;20745;50.882;6.962;2023-01-28T00:10:39;102104.03;;;4.62;100.00
34500;BME280;20745;50.882;6.962;2023-01-28T00:13:06;102120.31;;;4.59;100.00
34500;BME280;20745;50.882;6.962;2023-01-28T00:15:34;102108.31;;;4.65;100.00
34500;BME280;20745;50.882;6.962;2023-01-28T00:18:01;102104.47;;;4.56;100.00
34500;BME280;20745;50.882;6.962;2023-01-28T00:20:27;102106.97;;;4.47;100.00
34500;BME280;20745;50.882;6.962;2023-01-28T00:22:55;102109.63;;;4.47;100.00
34500;BME280;20745;50.882;6.962;2023-01-28T00:25:22;102104.06;;;4.50;100.00
34500;BME280;20745;50.882;6.962;2023-01-28T00:27:48;102104.06;;;4.50;100.00
34500;BME280;20745;50.882;6.962;2023-01-28T00:30:16;102108.66;;;4.48;100.00
34500;BME280;20745;50.882;6.962;2023-01-28T00:32:44;102106.22;;;4.45;100.00
34500;BME280;20745;50.882;6.962;2023-01-28T00:35:10;102104.28;;;4.34;100.00
34500;BME280;20745;50.882;6.962;2023-01-28T00:37:37;102102.03;;;4.41;100.00
34500;BME280;20745;50.882;6.962;2023-01-28T00:40:04;102103.13;;;4.38;100.00
34500;BME280;20745;50.882;6.962;2023-01-28T00:42:30;102111.03;;;4.40;100.00
34500;BME280;20745;50.882;6.962;2023-01-28T00:44:59;102099.25;;;4.42;100.00
34500;BME280;20745;50.882;6.962;2023-01-28T00:47:26;102100.56;;;4.37;100.00
34500;BME280;20745;50.882;6.962;2023-01-28T00:49:53;102107.72;;;4.36;100.00
34500;BME280;20745;50.882;6.962;2023-01-28T00:52:19;102107.72;;;4.24;100.00
34500;BME280;20745;50.882;6.962;2023-01-28T00:54:47;102108.38;;;4.15;100.00
34500;BME280;20745;50.882;6.962;2023-01-28T00:57:13;102115.53;;;4.02;100.00
34500;BME280;20745;50.882;6.962;2023-01-28T00:59:40;102113.41;;;4.07;100.00
34500;BME280;20745;50.882;6.962;2023-01-28T01:02:06;102120.56;;;4.06;100.00
34500;BME280;20745;50.882;6.962;2023-01-28T01:04:38;102108.78;;;4.09;100.00
34500;BME280;20745;50.882;6.962;2023-01-28T01:07:04;102117.13;;;4.04;100.00
34500;BME280;20745;50.882;6.962;2023-01-28T01:09:31;102100.03;;;4.07;100.00
34500;BME280;20745;50.882;6.962;2023-01-28T01:11:57;102098.75;;;4.12;100.00
34500;BME280;20745;50.882;6.962;2023-01-28T01:14:23;102101.22;;;4.15;100.00
34500;BME280;20745;50.882;6.962;2023-01-28T01:16:50;102103.22;;;4.12;100.00
34500;BME280;20745;50.882;6.962;2023-01-28T01:19:18;102096.19;;;4.11;100.00
34500;BME280;20745;50.882;6.962;2023-01-28T01:21:44;102098.63;;;4.14;100.00
34500;BME280;20745;50.882;6.962;2023-01-28T01:24:15;102105.16;;;4.10;100.00
34500;BME280;20745;50.882;6.962;2023-01-28T01:26:42;102098.50;;;4.03;100.00
34500;BME280;20745;50.882;6.962;2023-01-28T01:29:08;102105.38;;;4.07;100.00
34500;BME280;20745;50.882;6.962;2023-01-28T01:31:35;102103.75;;;4.04;100.00
34500;BME280;20745;50.882;6.962;2023-01-28T01:34:01;102106.00;;;3.98;100.00
34500;BME280;20745;50.882;6.962;2023-01-28T01:36:27;102117.88;;;3.94;100.00
34500;BME280;20745;50.882;6.962;2023-01-28T01:38:54;102111.97;;;4.01;100.00
34500;BME280;20745;50.882;6.962;2023-01-28T01:41:28;102117.09;;;3.92;100.00
34500;BME280;20745;50.882;6.962;2023-01-28T01:43:56;102118.81;;;3.93;100.00
34500;BME280;20745;50.882;6.962;2023-01-28T01:46:29;102112.31;;;3.97;100.00
34500;BME280;20745;50.882;6.962;2023-01-28T01:48:56;102107.81;;;3.97;100.00
34500;BME280;20745;50.882;6.962;2023-01-28T01:51:28;102111.56;;;3.95;100.00
34500;BME280;20745;50.882;6.962;2023-01-28T01:53:57;102114.03;;;3.85;100.00
34500;BME280;20745;50.882;6.962;2023-01-28T01:56:29;102106.09;;;3.84;100.00
34500;BME280;20745;50.882;6.962;2023-01-28T01:58:57;102116.75;;;3.71;100.00
34500;BME280;20745;50.882;6.962;2023-01-28T02:01:26;102114.66;;;3.50;100.00
34500;BME280;20745;50.882;6.962;2023-01-28T02:03:56;102125.59;;;3.47;100.00
34500;BME280;20745;50.882;6.962;2023-01-28T02:06:24;102125.97;;;3.41;100.00
34500;BME280;20745;50.882;6.962;2023-01-28T02:08:54;102121.19;;;3.46;100.00
34500;BME280;20745;50.882;6.962;2023-01-28T02:11:21;102124.03;;;3.43;100.00
34500;BME280;20745;50.882;6.962;2023-01-28T02:13:50;102123.81;;;3.33;100.00
34500;BME280;20745;50.882;6.962;2023-01-28T02:16:22;102129.34;;;3.30;100.00
34500;BME280;20745;50.882;6.962;2023-01-28T02:18:49;102122.22;;;3.31;100.00
34500;BME280;20745;50.882;6.962;2023-01-28T02:21:20;102126.97;;;3.26;100.00
34500;BME280;20745;50.882;6.962;2023-01-28T02:23:59;102116.69;;;3.20;100.00
34500;BME280;20745;50.882;6.962;2023-01-28T02:29:21;102120.53;;;3.16;100.00
34500;BME280;20745;50.882;6.962;2023-01-28T02:31:55;102110.91;;;3.13;100.00
34500;BME280;20745;50.882;6.962;2023-01-28T02:34:32;102116.94;;;3.17;100.00
34500;BME280;20745;50.882;6.962;2023-01-28T02:37:07;102122.25;;;3.17;100.00
34500;BME280;20745;50.882;6.962;2023-01-28T02:39:41;102127.84;;;3.26;100.00
34500;BME280;20745;50.882;6.962;2023-01-28T02:42:09;102133.53;;;3.08;100.00
34500;BME280;20745;50.882;6.962;2023-01-28T02:44:38;102138.38;;;3.01;100.00
34500;BME280;20745;50.882;6.962;2023-01-28T02:47:08;102132.03;;;2.90;100.00
34500;BME280;20745;50.882;6.962;2023-01-28T02:49:53;102136.63;;;2.88;100.00
34500;BME280;20745;50.882;6.962;2023-01-28T02:55:11;102141.28;;;2.84;100.00
34500;BME280;20745;50.882;6.962;2023-01-28T02:57:42;102140.44;;;2.84;100.00
34500;BME280;20745;50.882;6.962;2023-01-28T03:02:43;102155.78;;;2.80;100.00
34500;BME280;20745;50.882;6.962;2023-01-28T03:05:34;102154.06;;;2.79;100.00
34500;BME280;20745;50.882;6.962;2023-01-28T03:08:03;102164.56;;;2.82;100.00
34500;BME280;20745;50.882;6.962;2023-01-28T03:10:51;102169.50;;;2.74;100.00
34500;BME280;20745;50.882;6.962;2023-01-28T03:13:36;102169.88;;;2.68;100.00
34500;BME280;20745;50.882;6.962;2023-01-28T03:16:22;102163.97;;;2.77;100.00
34500;BME280;20745;50.882;6.962;2023-01-28T03:19:13;102162.81;;;2.81;100.00
34500;BME280;20745;50.882;6.962;2023-01-28T03:21:58;102169.50;;;2.74;100.00
34500;BME280;20745;50.882;6.962;2023-01-28T03:24:44;102165.69;;;2.78;100.00
34500;BME280;20745;50.882;6.962;2023-01-28T03:27:53;102165.81;;;2.77;100.00
34500;BME280;20745;50.882;6.962;2023-01-28T03:30:46;102168.47;;;2.77;100.00
34500;BME280;20745;50.882;6.962;2023-01-28T03:33:32;102170.53;;;2.86;100.00
34500;BME280;20745;50.882;6.962;2023-01-28T03:36:19;102173.31;;;2.84;100.00
34500;BME280;20745;50.882;6.962;2023-01-28T03:39:04;102163.13;;;2.91;100.00
34500;BME280;20745;50.882;6.962;2023-01-28T03:41:31;102168.16;;;2.95;100.00
34500;BME280;20745;50.882;6.962;2023-01-28T03:43:57;102172.69;;;3.07;100.00
34500;BME280;20745;50.882;6.962;2023-01-28T03:46:44;102169.84;;;3.10;100.00
34500;BME280;20745;50.882;6.962;2023-01-28T03:49:10;102167.84;;;3.00;100.00
34500;BME280;20745;50.882;6.962;2023-01-28T03:51:37;102180.44;;;2.98;100.00
34500;BME280;20745;50.882;6.962;2023-01-28T03:54:03;102169.94;;;3.09;100.00
34500;BME280;20745;50.882;6.962;2023-01-28T03:56:33;102175.19;;;3.10;100.00
34500;BME280;20745;50.882;6.962;2023-01-28T03:59:05;102180.59;;;3.09;100.00
34500;BME280;20745;50.882;6.962;2023-01-28T04:01:32;102184.78;;;3.13;100.00
34500;BME280;20745;50.882;6.962;2023-01-28T04:03:58;102184.59;;;3.16;100.00
34500;BME280;20745;50.882;6.962;2023-01-28T04:06:25;102188.22;;;3.15;100.00
34500;BME280;20745;50.882;6.962;2023-01-28T04:08:51;102191.53;;;3.32;100.00
34500;BME280;20745;50.882;6.962;2023-01-28T04:11:18;102196.56;;;3.37;100.00
34500;BME280;20745;50.882;6.962;2023-01-28T04:13:47;102194.00;;;3.35;100.00
34500;BME280;20745;50.882;6.962;2023-01-28T04:16:14;102196.72;;;3.48;100.00
34500;BME280;20745;50.882;6.962;2023-01-28T04:18:42;102199.19;;;3.51;100.00
34500;BME280;20745;50.882;6.962;2023-01-28T04:21:08;102197.69;;;3.47;100.00
34500;BME280;20745;50.882;6.962;2023-01-28T04:23:35;102199.28;;;3.49;100.00
34500;BME280;20745;50.882;6.962;2023-01-28T04:26:01;102205.69;;;3.47;100.00
34500;BME280;20745;50.882;6.962;2023-01-28T04:28:29;102202.16;;;3.46;100.00
34500;BME280;20745;50.882;6.962;2023-01-28T04:30:55;102203.97;;;3.46;100.00
34500;BME280;20745;50.882;6.962;2023-01-28T04:33:24;102198.44;;;3.49;100.00
34500;BME280;20745;50.882;6.962;2023-01-28T04:35:50;102198.44;;;3.49;100.00
34500;BME280;20745;50.882;6.962;2023-01-28T04:38:17;102194.09;;;3.34;100.00
34500;BME280;20745;50.882;6.962;2023-01-28T04:40:43;102195.03;;;3.33;100.00
34500;BME280;20745;50.882;6.962;2023-01-28T04:43:12;102201.53;;;3.29;100.00
34500;BME280;20745;50.882;6.962;2023-01-28T04:45:38;102206.69;;;3.32;100.00
34500;BME280;20745;50.882;6.962;2023-01-28T04:48:05;102208.88;;;3.39;100.00
34500;BME280;20745;50.882;6.962;2023-01-28T04:50:31;102213.63;;;3.34;100.00
34500;BME280;20745;50.882;6.962;2023-01-28T04:52:57;102215.28;;;3.37;100.00
34500;BME280;20745;50.882;6.962;2023-01-28T04:55:24;102214.66;;;3.46;100.00
34500;BME280;20745;50.882;6.962;2023-01-28T04:57:50;102215.22;;;3.51;100.00
34500;BME280;20745;50.882;6.962;2023-01-28T05:00:17;102222.31;;;3.38;100.00
34500;BME280;20745;50.882;6.962;2023-01-28T05:02:43;102211.53;;;3.39;100.00
34500;BME280;20745;50.882;6.962;2023-01-28T05:05:10;102210.75;;;3.37;100.00
34500;BME280;20745;50.882;6.962;2023-01-28T05:07:36;102216.38;;;3.47;100.00
34500;BME280;20745;50.882;6.962;2023-01-28T05:10:03;102208.72;;;3.55;100.00
34500;BME280;20745;50.882;6.962;2023-01-28T05:12:31;102216.25;;;3.62;100.00
34500;BME280;20745;50.882;6.962;2023-01-28T05:14:59;102213.53;;;3.36;100.00
34500;BME280;20745;50.882;6.962;2023-01-28T05:17:26;102211.38;;;3.28;100.00
34500;BME280;20745;50.882;6.962;2023-01-28T05:19:52;102218.53;;;3.28;100.00
34500;BME280;20745;50.882;6.962;2023-01-28T05:22:20;102213.09;;;3.29;100.00
34500;BME280;20745;50.882;6.962;2023-01-28T05:24:47;102216.22;;;3.36;100.00
34500;BME280;20745;50.882;6.962;2023-01-28T05:27:13;102214.34;;;3.50;100.00
34500;BME280;20745;50.882;6.962;2023-01-28T05:29:40;102216.53;;;3.58;100.00
34500;BME280;20745;50.882;6.962;2023-01-28T05:32:06;102215.75;;;3.56;100.00
34500;BME280;20745;50.882;6.962;2023-01-28T05:34:33;102210.38;;;3.43;100.00
34500;BME280;20745;50.882;6.962;2023-01-28T05:37:03;102218.53;;;3.54;100.00
34500;BME280;20745;50.882;6.962;2023-01-28T05:39:29;102216.94;;;3.52;100.00
34500;BME280;20745;50.882;6.962;2023-01-28T05:41:56;102220.28;;;3.55;100.00
34500;BME280;20745;50.882;6.962;2023-01-28T05:44:26;102220.06;;;3.58;100.00
34500;BME280;20745;50.882;6.962;2023-01-28T05:46:52;102223.06;;;3.40;100.00
34500;BME280;20745;50.882;6.962;2023-01-28T05:49:18;102225.34;;;3.46;100.00
34500;BME280;20745;50.882;6.962;2023-01-28T05:51:45;102222.47;;;3.49;100.00
34500;BME280;20745;50.882;6.962;2023-01-28T05:54:13;102226.75;;;3.51;100.00
34500;BME280;20745;50.882;6.962;2023-01-28T05:56:39;102221.63;;;3.48;100.00
34500;BME280;20745;50.882;6.962;2023-01-28T05:59:09;102230.69;;;3.46;100.00
34500;BME280;20745;50.882;6.962;2023-01-28T06:01:36;102243.28;;;3.44;100.00
34500;BME280;20745;50.882;6.962;2023-01-28T06:04:02;102237.19;;;3.42;100.00
34500;BME280;20745;50.882;6.962;2023-01-28T06:06:29;102237.75;;;3.47;100.00
34500;BME280;20745;50.882;6.962;2023-01-28T06:08:55;102239.84;;;3.42;100.00
34500;BME280;20745;50.882;6.962;2023-01-28T06:11:22;102253.97;;;3.30;100.00
34500;BME280;20745;50.882;6.962;2023-01-28T06:13:48;102247.00;;;3.41;100.00
34500;BME280;20745;50.882;6.962;2023-01-28T06:16:14;102243.09;;;3.47;100.00
34500;BME280;20745;50.882;6.962;2023-01-28T06:18:41;102247.47;;;3.48;100.00
34500;BME280;20745;50.882;6.962;2023-01-28T06:21:10;102247.19;;;3.52;100.00
34500;BME280;20745;50.882;6.962;2023-01-28T06:23:36;102248.00;;;3.53;100.00
34500;BME280;20745;50.882;6.962;2023-01-28T06:26:02;102250.38;;;3.57;100.00
34500;BME280;20745;50.882;6.962;2023-01-28T06:28:29;102252.53;;;3.52;100.00
34500;BME280;20745;50.882;6.962;2023-01-28T06:30:55;102247.19;;;3.52;100.00
34500;BME280;20745;50.882;6.962;2023-01-28T06:33:22;102247.63;;;3.59;100.00
34500;BME280;20745;50.882;6.962;2023-01-28T06:35:49;102257.56;;;3.57;100.00
34500;BME280;20745;50.882;6.962;2023-01-28T06:38:15;102253.47;;;3.51;100.00
34500;BME280;20745;50.882;6.962;2023-01-28T06:40:50;102262.91;;;3.43;100.00
34500;BME280;20745;50.882;6.962;2023-01-28T06:43:17;102269.06;;;3.31;100.00
34500;BME280;20745;50.882;6.962;2023-01-28T06:45:43;102263.53;;;3.34;100.00
34500;BME280;20745;50.882;6.962;2023-01-28T06:48:09;102256.06;;;3.39;100.00
34500;BME280;20745;50.882;6.962;2023-01-28T06:50:36;102255.00;;;3.41;100.00
34500;BME280;20745;50.882;6.962;2023-01-28T06:53:02;102256.34;;;3.34;100.00
34500;BME280;20745;50.882;6.962;2023-01-28T06:55:29;102255.22;;;3.38;100.00
34500;BME280;20745;50.882;6.962;2023-01-28T06:57:55;102258.75;;;3.39;100.00
34500;BME280;20745;50.882;6.962;2023-01-28T07:00:21;102251.59;;;3.39;100.00
34500;BME280;20745;50.882;6.962;2023-01-28T07:02:48;102257.56;;;3.43;100.00
34500;BME280;20745;50.882;6.962;2023-01-28T07:05:17;102254.31;;;3.52;100.00
34500;BME280;20745;50.882;6.962;2023-01-28T07:07:43;102253.34;;;3.53;100.00
34500;BME280;20745;50.882;6.962;2023-01-28T07:10:11;102256.59;;;3.58;100.00
34500;BME280;20745;50.882;6.962;2023-01-28T07:12:38;102259.72;;;3.64;100.00
34500;BME280;20745;50.882;6.962;2023-01-28T07:15:14;102258.97;;;3.62;100.00
34500;BME280;20745;50.882;6.962;2023-01-28T07:17:40;102258.50;;;3.56;100.00
34500;BME280;20745;50.882;6.962;2023-01-28T07:20:08;102268.03;;;3.60;100.00
34500;BME280;20745;50.882;6.962;2023-01-28T07:22:41;102277.81;;;3.47;100.00
34500;BME280;20745;50.882;6.962;2023-01-28T07:25:10;102276.47;;;3.54;100.00
34500;BME280;20745;50.882;6.962;2023-01-28T07:27:37;102274.91;;;3.64;100.00
34500;BME280;20745;50.882;6.962;2023-01-28T07:30:05;102235.09;;;3.47;100.00
34500;BME280;20745;50.882;6.962;2023-01-28T07:32:32;102273.94;;;3.65;100.00
34500;BME280;20745;50.882;6.962;2023-01-28T07:35:06;102276.56;;;3.52;100.00
34500;BME280;20745;50.882;6.962;2023-01-28T07:37:33;102281.63;;;3.57;100.00
34500;BME280;20745;50.882;6.962;2023-01-28T07:40:00;102271.28;;;3.65;100.00
34500;BME280;20745;50.882;6.962;2023-01-28T07:42:27;102271.81;;;3.70;100.00
34500;BME280;20745;50.882;6.962;2023-01-28T07:44:53;102278.69;;;3.74;100.00
34500;BME280;20745;50.882;6.962;2023-01-28T07:47:20;102277.16;;;3.70;100.00
34500;BME280;20745;50.882;6.962;2023-01-28T07:49:47;102273.56;;;3.71;100.00
34500;BME280;20745;50.882;6.962;2023-01-28T07:52:13;102264.75;;;3.69;100.00
34500;BME280;20745;50.882;6.962;2023-01-28T07:54:40;102263.69;;;3.71;100.00
34500;BME280;20745;50.882;6.962;2023-01-28T07:57:07;102271.31;;;3.77;100.00
34500;BME280;20745;50.882;6.962;2023-01-28T07:59:37;102277.03;;;3.85;100.00
34500;BME280;20745;50.882;6.962;2023-01-28T08:02:04;102276.75;;;3.90;100.00
34500;BME280;20745;50.882;6.962;2023-01-28T08:04:31;102271.94;;;3.95;100.00
34500;BME280;20745;50.882;6.962;2023-01-28T08:06:57;102280.34;;;3.89;100.00
34500;BME280;20745;50.882;6.962;2023-01-28T08:09:24;102281.31;;;3.88;100.00
34500;BME280;20745;50.882;6.962;2023-01-28T08:11:50;102282.09;;;3.90;100.00
34500;BME280;20745;50.882;6.962;2023-01-28T08:14:17;102281.84;;;3.93;100.00
34500;BME280;20745;50.882;6.962;2023-01-28T08:16:44;102291.63;;;3.94;100.00
34500;BME280;20745;50.882;6.962;2023-01-28T08:19:10;102291.63;;;3.94;100.00
34500;BME280;20745;50.882;6.962;2023-01-28T08:21:36;102299.34;;;3.84;100.00
34500;BME280;20745;50.882;6.962;2023-01-28T08:24:03;102302.50;;;3.91;100.00
34500;BME280;20745;50.882;6.962;2023-01-28T08:26:29;102298.31;;;3.87;100.00
34500;BME280;20745;50.882;6.962;2023-01-28T08:28:57;102301.97;;;3.72;100.00
34500;BME280;20745;50.882;6.962;2023-01-28T08:31:23;102317.44;;;3.81;100.00
34500;BME280;20745;50.882;6.962;2023-01-28T08:33:50;102312.19;;;3.79;100.00
34500;BME280;20745;50.882;6.962;2023-01-28T08:36:16;102313.97;;;3.79;100.00
34500;BME280;20745;50.882;6.962;2023-01-28T08:38:42;102313.28;;;3.89;100.00
34500;BME280;20745;50.882;6.962;2023-01-28T08:41:10;102306.53;;;3.84;100.00
34500;BME280;20745;50.882;6.962;2023-01-28T08:43:36;102304.31;;;3.90;100.00
34500;BME280;20745;50.882;6.962;2023-01-28T08:46:06;102295.69;;;3.99;100.00
34500;BME280;20745;50.882;6.962;2023-01-28T08:48:33;102310.47;;;4.05;100.00
34500;BME280;20745;50.882;6.962;2023-01-28T08:50:59;102309.59;;;4.04;100.00
34500;BME280;20745;50.882;6.962;2023-01-28T08:53:26;102312.59;;;4.00;100.00
34500;BME280;20745;50.882;6.962;2023-01-28T08:55:52;102314.31;;;4.01;100.00
34500;BME280;20745;50.882;6.962;2023-01-28T08:58:18;102324.03;;;4.02;100.00
34500;BME280;20745;50.882;6.962;2023-01-28T09:00:45;102322.72;;;3.95;100.00
34500;BME280;20745;50.882;6.962;2023-01-28T09:03:12;102326.38;;;3.94;100.00
34500;BME280;20745;50.882;6.962;2023-01-28T09:05:39;102329.28;;;3.77;100.00
34500;BME280;20745;50.882;6.962;2023-01-28T09:08:07;102328.41;;;3.76;100.00
34500;BME280;20745;50.882;6.962;2023-01-28T09:10:34;102334.53;;;3.78;100.00
34500;BME280;20745;50.882;6.962;2023-01-28T09:13:09;102332.16;;;3.74;100.00
34500;BME280;20745;50.882;6.962;2023-01-28T09:15:36;102339.38;;;3.72;100.00
34500;BME280;20745;50.882;6.962;2023-01-28T09:18:03;102342.44;;;3.66;100.00
34500;BME280;20745;50.882;6.962;2023-01-28T09:20:32;102337.38;;;3.61;100.00
34500;BME280;20745;50.882;6.962;2023-01-28T09:22:59;102344.19;;;3.53;100.00
34500;BME280;20745;50.882;6.962;2023-01-28T09:25:26;102351.06;;;3.57;100.00
34500;BME280;20745;50.882;6.962;2023-01-28T09:27:52;102357.84;;;3.62;100.00
34500;BME280;20745;50.882;6.962;2023-01-28T09:30:19;102368.88;;;3.70;100.00
34500;BME280;20745;50.882;6.962;2023-01-28T09:32:49;102364.03;;;3.49;100.00
34500;BME280;20745;50.882;6.962;2023-01-28T09:35:16;102374.13;;;3.30;100.00
34500;BME280;20745;50.882;6.962;2023-01-28T09:37:43;102381.31;;;3.43;100.00
34500;BME280;20745;50.882;6.962;2023-01-28T09:43:07;102382.38;;;3.41;100.00
34500;BME280;20745;50.882;6.962;2023-01-28T09:45:45;102383.50;;;3.51;100.00
34500;BME280;20745;50.882;6.962;2023-01-28T09:48:13;102391.81;;;3.32;100.00
34500;BME280;20745;50.882;6.962;2023-01-28T09:50:43;102384.63;;;3.33;100.00
34500;BME280;20745;50.882;6.962;2023-01-28T09:53:12;102394.94;;;3.39;100.00
34500;BME280;20745;50.882;6.962;2023-01-28T09:55:42;102389.69;;;3.51;100.00
34500;BME280;20745;50.882;6.962;2023-01-28T09:58:11;102384.25;;;3.39;100.00
34500;BME280;20745;50.882;6.962;2023-01-28T10:11:55;102399.16;;;3.57;100.00
34500;BME280;20745;50.882;6.962;2023-01-28T10:17:41;102396.28;;;3.74;100.00
34500;BME280;20745;50.882;6.962;2023-01-28T10:20:30;102389.19;;;3.73;100.00
34500;BME280;20745;50.882;6.962;2023-01-28T10:23:35;102395.47;;;3.86;100.00
34500;BME280;20745;50.882;6.962;2023-01-28T10:26:26;102399.13;;;3.85;100.00
34500;BME280;20745;50.882;6.962;2023-01-28T10:29:16;102394.72;;;3.70;100.00
34500;BME280;20745;50.882;6.962;2023-01-28T10:32:05;102396.09;;;3.77;100.00
34500;BME280;20745;50.882;6.962;2023-01-28T10:34:59;102401.03;;;3.69;100.00
34500;BME280;20745;50.882;6.962;2023-01-28T10:37:47;102406.66;;;3.64;100.00
34500;BME280;20745;50.882;6.962;2023-01-28T10:40:32;102410.56;;;3.73;100.00
34500;BME280;20745;50.882;6.962;2023-01-28T10:43:18;102408.09;;;3.70;100.00
34500;BME280;20745;50.882;6.962;2023-01-28T10:46:25;102404.97;;;3.63;100.00
34500;BME280;20745;50.882;6.962;2023-01-28T10:49:12;102395.41;;;3.73;100.00
34500;BME280;20745;50.882;6.962;2023-01-28T10:51:59;102404.19;;;3.61;100.00
34500;BME280;20745;50.882;6.962;2023-01-28T10:55:04;102393.41;;;3.77;100.00
34500;BME280;20745;50.882;6.962;2023-01-28T10:57:49;102393.31;;;3.78;100.00
34500;BME280;20745;50.882;6.962;2023-01-28T11:00:35;102388.63;;;3.82;100.00
34500;BME280;20745;50.882;6.962;2023-01-28T11:03:20;102358.88;;;3.74;100.00
34500;BME280;20745;50.882;6.962;2023-01-28T11:06:17;102397.41;;;3.84;100.00
34500;BME280;20745;50.882;6.962;2023-01-28T11:09:19;102358.75;;;3.61;100.00
34500;BME280;20745;50.882;6.962;2023-01-28T11:12:23;102394.91;;;3.95;100.00
34500;BME280;20745;50.882;6.962;2023-01-28T11:15:10;102397.09;;;4.02;100.00
34500;BME280;20745;50.882;6.962;2023-01-28T11:18:02;102397.59;;;3.81;100.00
34500;BME280;20745;50.882;6.962;2023-01-28T11:20:53;102395.41;;;3.73;100.00
34500;BME280;20745;50.882;6.962;2023-01-28T11:23:48;102389.03;;;3.62;100.00
34500;BME280;20745;50.882;6.962;2023-01-28T11:26:38;102397.22;;;3.73;100.00
34500;BME280;20745;50.882;6.962;2023-01-28T11:29:27;102360.97;;;3.69;100.00
34500;BME280;20745;50.882;6.962;2023-01-28T11:32:15;102386.53;;;3.87;100.00
34500;BME280;20745;50.882;6.962;2023-01-28T11:35:01;102381.69;;;4.06;100.00
34500;BME280;20745;50.882;6.962;2023-01-28T11:37:47;102391.97;;;4.12;100.00
34500;BME280;20745;50.882;6.962;2023-01-28T11:40:32;102391.72;;;4.02;100.00
34500;BME280;20745;50.882;6.962;2023-01-28T11:43:17;102386.78;;;4.23;100.00
34500;BME280;20745;50.882;6.962;2023-01-28T11:51:46;102398.22;;;4.12;98.54
34500;BME280;20745;50.882;6.962;2023-01-28T11:57:25;102392.81;;;4.00;99.59
34500;BME280;20745;50.882;6.962;2023-01-28T12:03:04;102392.31;;;3.93;100.00
34500;BME280;20745;50.882;6.962;2023-01-28T12:05:55;102394.03;;;3.94;100.00
34500;BME280;20745;50.882;6.962;2023-01-28T12:11:35;102373.56;;;4.07;100.00
34500;BME280;20745;50.882;6.962;2023-01-28T12:17:48;102382.31;;;3.97;99.02
34500;BME280;20745;50.882;6.962;2023-01-28T12:23:50;102367.09;;;3.97;100.00
34500;BME280;20745;50.882;6.962;2023-01-28T12:49:33;102376.59;;;3.75;100.00
34500;BME280;20745;50.882;6.962;2023-01-28T12:52:26;102372.38;;;3.85;99.88
34500;BME280;20745;50.882;6.962;2023-01-28T12:55:18;102370.84;;;3.95;100.00
34500;BME280;20745;50.882;6.962;2023-01-28T12:58:06;102373.50;;;3.95;97.51
34500;BME280;20745;50.882;6.962;2023-01-28T13:00:59;102371.00;;;4.06;97.84
34500;BME280;20745;50.882;6.962;2023-01-28T13:06:49;102358.63;;;3.91;94.40
34500;BME280;20745;50.882;6.962;2023-01-28T13:09:38;102350.72;;;3.89;93.49
34500;BME280;20745;50.882;6.962;2023-01-28T13:12:31;102344.44;;;4.03;94.35
34500;BME280;20745;50.882;6.962;2023-01-28T13:15:18;102342.59;;;3.91;94.91
34500;BME280;20745;50.882;6.962;2023-01-28T13:18:06;102328.94;;;3.81;94.05
34500;BME280;20745;50.882;6.962;2023-01-28T13:20:52;102332.50;;;3.82;92.98
34500;BME280;20745;50.882;6.962;2023-01-28T13:29:19;102319.41;;;4.18;76.23
34500;BME280;20745;50.882;6.962;2023-01-28T13:32:26;102317.16;;;4.24;77.22
34500;BME280;20745;50.882;6.962;2023-01-28T13:35:23;102321.47;;;4.27;75.24
34500;BME280;20745;50.882;6.962;2023-01-28T13:38:16;102303.25;;;4.19;77.01
34500;BME280;20745;50.882;6.962;2023-01-28T13:41:06;102297.81;;;4.21;76.17
34500;BME280;20745;50.882;6.962;2023-01-28T13:43:55;102288.28;;;4.17;78.48
34500;BME280;20745;50.882;6.962;2023-01-28T13:46:28;102273.06;;;4.17;79.87
34500;BME280;20745;50.882;6.962;2023-01-28T13:48:58;102259.16;;;4.12;77.37
34500;BME280;20745;50.882;6.962;2023-01-28T13:51:30;102250.19;;;4.13;78.25
34500;BME280;20745;50.882;6.962;2023-01-28T13:54:01;102260.22;;;4.10;79.11
34500;BME280;20745;50.882;6.962;2023-01-28T13:56:38;102283.97;;;4.14;78.66
34500;BME280;20745;50.882;6.962;2023-01-28T14:01:56;102319.69;;;4.13;77.32
34500;BME280;20745;50.882;6.962;2023-01-28T14:07:09;102306.63;;;4.09;77.83
34500;BME280;20745;50.882;6.962;2023-01-28T14:14:55;102320.16;;;4.20;79.65
34500;BME280;20745;50.882;6.962;2023-01-28T14:17:43;102331.72;;;4.33;79.80
34500;BME280;20745;50.882;6.962;2023-01-28T14:20:13;102331.59;;;4.22;77.31
34500;BME280;20745;50.882;6.962;2023-01-28T14:22:42;102320.69;;;4.25;76.96
34500;BME280;20745;50.882;6.962;2023-01-28T14:25:17;102329.50;;;4.27;78.00
34500;BME280;20745;50.882;6.962;2023-01-28T14:27:46;102353.34;;;4.30;79.30
34500;BME280;20745;50.882;6.962;2023-01-28T14:30:37;102352.59;;;4.28;79.08
34500;BME280;20745;50.882;6.962;2023-01-28T14:33:25;102349.25;;;4.24;79.29
34500;BME280;20745;50.882;6.962;2023-01-28T14:36:11;102340.19;;;4.27;80.53
34500;BME280;20745;50.882;6.962;2023-01-28T14:38:59;102343.50;;;4.04;79.32
34500;BME280;20745;50.882;6.962;2023-01-28T14:41:27;102349.34;;;3.96;79.42
34500;BME280;20745;50.882;6.962;2023-01-28T14:43:53;102346.78;;;3.95;81.08
34500;BME280;20745;50.882;6.962;2023-01-28T14:49:09;102347.38;;;3.86;80.41
34500;BME280;20745;50.882;6.962;2023-01-28T14:57:15;102343.09;;;3.83;79.79